Time;durP1;ratioP1;P1;durP2;ratioP2;P2;SDS_P1;SDS_P2;PMS_P1;PMS_P2;Temp;Humidity;BMP_temperature;BMP_pressure;BME280_temperature;BME280_humidity;BME280_pressure;Samples;Min_cycle;Max_cycle;Signal;HPM_P1;HPM_P2
2022/07/02 00:02:19;;;;;;;11.13;6.17;;;14.10;99.90;;;;;;5035423;28;20261;-47
2022/07/02 00:04:52;;;;;;;7.03;6.43;;;14.00;99.90;;;;;;5037331;28;20199;-45
2022/07/02 00:07:19;;;;;;;7.33;6.57;;;14.00;99.90;;;;;;5027461;28;20246;-43
2022/07/02 00:09:46;;;;;;;7.47;6.70;;;13.90;99.90;;;;;;5037306;28;20199;-46
2022/07/02 00:12:14;;;;;;;7.10;6.50;;;13.90;99.90;;;;;;5035388;28;21044;-43
2022/07/02 00:14:41;;;;;;;7.80;6.90;;;13.80;99.90;;;;;;5036911;28;20196;-43
2022/07/02 00:17:10;;;;;;;9.23;7.27;;;13.80;99.90;;;;;;5042121;28;20195;-43
2022/07/02 00:19:37;;;;;;;9.97;6.57;;;13.80;99.90;;;;;;5039650;28;20224;-44
2022/07/02 00:22:05;;;;;;;7.97;6.83;;;13.70;99.90;;;;;;5040127;28;20192;-46
2022/07/02 00:24:32;;;;;;;6.80;6.10;;;13.70;99.90;;;;;;5023594;28;20211;-42
2022/07/02 00:27:00;;;;;;;7.67;6.80;;;13.60;99.90;;;;;;5028446;28;20198;-48
2022/07/02 00:29:35;;;;;;;7.97;6.63;;;13.50;99.90;;;;;;5035787;28;20680;-43
2022/07/02 00:32:02;;;;;;;7.20;6.50;;;13.50;99.90;;;;;;5041229;28;20248;-45
2022/07/02 00:34:31;;;;;;;6.33;5.73;;;13.50;99.90;;;;;;5040676;28;20204;-42
2022/07/02 00:36:58;;;;;;;6.17;5.57;;;13.50;99.90;;;;;;5035668;28;20202;-43
2022/07/02 00:39:25;;;;;;;6.90;6.20;;;13.50;99.90;;;;;;5027333;28;20228;-43
2022/07/02 00:41:53;;;;;;;6.27;5.67;;;13.60;99.90;;;;;;5034077;28;20207;-42
2022/07/02 00:44:22;;;;;;;6.13;5.57;;;13.50;99.90;;;;;;5034495;28;20277;-46
2022/07/02 00:46:51;;;;;;;6.97;5.23;;;13.50;99.90;;;;;;5038918;28;20704;-43
2022/07/02 00:49:18;;;;;;;6.40;5.80;;;13.50;99.90;;;;;;5041989;28;20206;-45
2022/07/02 00:51:45;;;;;;;6.20;5.70;;;13.50;99.90;;;;;;5037501;28;20278;-43
2022/07/02 00:54:12;;;;;;;6.20;5.67;;;13.40;99.90;;;;;;5026946;28;20222;-43
2022/07/02 00:56:39;;;;;;;6.80;5.90;;;13.40;99.90;;;;;;5039213;28;20203;-44
2022/07/02 00:59:06;;;;;;;6.33;5.80;;;13.40;99.90;;;;;;5040572;28;20226;-50
2022/07/02 01:01:33;;;;;;;8.43;5.60;;;13.30;99.90;;;;;;5030074;28;20253;-46
2022/07/02 01:04:04;;;;;;;5.40;4.90;;;13.30;99.90;;;;;;5040225;28;20214;-43
2022/07/02 01:06:33;;;;;;;6.13;5.63;;;13.30;99.90;;;;;;5040933;28;20265;-44
2022/07/02 01:11:46;;;;;;;9.77;5.77;;;13.30;99.90;;;;;;5022407;28;20203;-43
2022/07/02 01:14:16;;;;;;;7.03;6.40;;;13.30;99.90;;;;;;5038434;28;20748;-45
2022/07/02 01:16:43;;;;;;;7.30;5.97;;;13.30;99.90;;;;;;5028001;28;20253;-43
2022/07/02 01:19:14;;;;;;;7.07;6.47;;;13.30;99.90;;;;;;5040701;28;20246;-43
2022/07/02 01:22:11;;;;;;;6.90;6.37;;;13.20;99.90;;;;;;5037031;28;20187;-43
2022/07/02 01:24:38;;;;;;;7.97;5.93;;;13.20;99.90;;;;;;5013893;28;20707;-44
2022/07/02 01:27:06;;;;;;;6.67;6.07;;;13.10;99.90;;;;;;5035742;28;20207;-42
2022/07/02 01:29:33;;;;;;;7.10;6.20;;;13.10;99.90;;;;;;5037993;28;20199;-44
2022/07/02 01:31:59;;;;;;;6.43;5.93;;;13.00;99.90;;;;;;5033545;28;20192;-44
2022/07/02 01:34:27;;;;;;;7.63;5.67;;;13.00;99.90;;;;;;5038571;28;20265;-45
2022/07/02 01:36:54;;;;;;;6.47;5.77;;;13.00;99.90;;;;;;5036741;28;20195;-42
2022/07/02 01:39:25;;;;;;;8.03;6.20;;;13.00;99.90;;;;;;5040810;28;20793;-46
2022/07/02 01:41:53;;;;;;;6.57;5.97;;;12.90;99.90;;;;;;5022567;28;20261;-43
2022/07/02 01:44:20;;;;;;;7.80;5.10;;;12.90;99.90;;;;;;5039484;28;20223;-42
2022/07/02 01:46:47;;;;;;;6.10;5.50;;;12.90;99.90;;;;;;5031360;28;20207;-42
2022/07/02 01:49:14;;;;;;;6.30;5.63;;;12.80;99.90;;;;;;5035554;28;20207;-45
2022/07/02 01:51:41;;;;;;;6.80;5.10;;;12.80;99.90;;;;;;5038727;28;20663;-43
2022/07/02 01:54:08;;;;;;;5.20;4.70;;;12.80;99.90;;;;;;5036766;28;20223;-43
2022/07/02 01:56:37;;;;;;;5.53;4.90;;;12.90;99.90;;;;;;5019336;28;20206;-45
2022/07/02 01:59:04;;;;;;;6.43;5.77;;;12.80;99.90;;;;;;5039807;28;20279;-43
2022/07/02 02:01:31;;;;;;;6.23;5.77;;;;;;;;;;5043264;28;20277;-44
2022/07/02 02:03:59;;;;;;;6.53;5.83;;;;;;;;;;5033716;28;20235;-48
2022/07/02 02:06:26;;;;;;;6.00;5.50;;;;;;;;;;5042129;28;20215;-47
2022/07/02 02:08:54;;;;;;;6.30;5.80;;;;;;;;;;5040327;28;20203;-46
2022/07/02 02:11:21;;;;;;;6.80;5.43;;;;;;;;;;5045779;28;20660;-47
2022/07/02 02:13:50;;;;;;;6.10;5.40;;;;;;;;;;5023563;28;20211;-45
2022/07/02 02:16:17;;;;;;;4.90;4.50;;;;;;;;;;5043360;28;20817;-44
2022/07/02 02:18:44;;;;;;;6.27;5.67;;;;;;;;;;5040460;28;20204;-44
2022/07/02 02:21:12;;;;;;;5.33;4.93;;;;;;;;;;5036631;28;20219;-42
2022/07/02 02:23:39;;;;;;;5.73;4.97;;;;;;;;;;5041245;28;20219;-42
2022/07/02 02:26:06;;;;;;;6.03;5.53;;;12.60;99.90;;;;;;5044230;28;20199;-46
2022/07/02 02:28:33;;;;;;;5.80;5.07;;;12.60;99.90;;;;;;5027088;28;20214;-46
2022/07/02 03:50:38;;;;;;;4.87;4.47;;;12.10;99.90;;;;;;5034319;28;20183;-45
2022/07/02 03:53:05;;;;;;;6.57;5.20;;;12.10;99.90;;;;;;5028640;28;20613;-44
2022/07/02 03:55:31;;;;;;;7.43;4.87;;;12.10;99.90;;;;;;5027590;28;20199;-44
2022/07/02 03:58:21;;;;;;;6.57;5.10;;;12.20;99.90;;;;;;5037666;28;20644;-43
2022/07/02 04:00:48;;;;;;;6.27;5.40;;;12.20;99.90;;;;;;5014802;28;20825;-46
2022/07/02 04:03:15;;;;;;;6.23;5.70;;;12.30;99.90;;;;;;5040482;28;20629;-44
2022/07/02 04:05:43;;;;;;;5.97;5.37;;;12.30;99.90;;;;;;5036606;28;20210;-43
2022/07/02 04:08:10;;;;;;;6.43;5.83;;;12.40;99.90;;;;;;5028858;28;20203;-43
2022/07/02 04:10:37;;;;;;;7.33;6.53;;;12.50;99.90;;;;;;5024737;28;20195;-42
2022/07/02 04:13:03;;;;;;;8.27;6.53;;;12.60;99.90;;;;;;5032620;28;20220;-44
2022/07/02 04:15:30;;;;;;;17.83;11.90;;;12.70;99.90;;;;;;5023310;28;20782;-43
2022/07/02 04:17:56;;;;;;;13.83;10.87;;;12.70;99.90;;;;;;5025898;28;20286;-44
2022/07/02 04:20:23;;;;;;;9.83;8.53;;;12.80;99.90;;;;;;5033815;28;20572;-45
2022/07/02 04:22:52;;;;;;;9.23;6.70;;;12.80;99.90;;;;;;5034484;28;20207;-43
2022/07/02 04:25:19;;;;;;;8.10;6.40;;;12.90;99.90;;;;;;5028340;28;20227;-46
2022/07/02 04:27:46;;;;;;;8.40;6.57;;;12.90;99.90;;;;;;5025042;28;20202;-44
2022/07/02 04:30:13;;;;;;;7.27;6.37;;;13.00;99.90;;;;;;5031111;28;20200;-42
2022/07/02 04:32:40;;;;;;;8.53;7.50;;;13.00;99.90;;;;;;5021846;28;20219;-42
2022/07/02 04:35:08;;;;;;;8.03;6.13;;;13.10;99.90;;;;;;5037020;28;20848;-46
2022/07/02 04:37:34;;;;;;;7.10;6.50;;;13.20;99.90;;;;;;5034739;28;20343;-50
2022/07/02 04:40:03;;;;;;;8.17;6.80;;;13.20;99.90;;;;;;5017638;28;20200;-50
2022/07/02 04:42:30;;;;;;;8.53;6.30;;;13.30;99.90;;;;;;5029570;28;20223;-55
2022/07/02 04:44:57;;;;;;;7.27;6.17;;;13.30;99.90;;;;;;5035977;28;20238;-52
2022/07/02 04:47:24;;;;;;;8.43;6.50;;;13.40;99.90;;;;;;5024461;28;20564;-53
2022/07/02 04:49:51;;;;;;;7.63;6.40;;;13.40;99.90;;;;;;5033204;28;20211;-51
2022/07/02 04:52:19;;;;;;;9.40;6.23;;;13.50;99.90;;;;;;5040079;28;20199;-50
2022/07/02 04:54:46;;;;;;;6.73;5.97;;;13.50;99.90;;;;;;5032649;28;20285;-51
2022/07/02 04:57:14;;;;;;;7.57;6.27;;;13.60;99.90;;;;;;5036344;28;20211;-55
2022/07/02 04:59:44;;;;;;;8.77;6.53;;;13.60;99.90;;;;;;5037046;28;20199;-52
2022/07/02 05:02:12;;;;;;;7.20;6.17;;;13.70;99.90;;;;;;5025088;28;20229;-49
2022/07/02 05:04:38;;;;;;;7.33;6.63;;;13.80;99.90;;;;;;5037719;28;20338;-49
2022/07/02 05:07:05;;;;;;;6.60;6.00;;;13.90;99.90;;;;;;5034485;28;20655;-55
2022/07/02 05:09:32;;;;;;;6.90;6.10;;;14.00;99.90;;;;;;5037615;28;20274;-55
2022/07/02 05:12:00;;;;;;;6.97;6.27;;;14.00;99.90;;;;;;5024230;28;20261;-50
2022/07/02 05:14:29;;;;;;;6.80;5.80;;;14.10;99.90;;;;;;5035705;28;20262;-52
2022/07/02 05:16:56;;;;;;;7.00;6.40;;;14.20;99.90;;;;;;5024815;28;20699;-54
2022/07/02 05:19:23;;;;;;;8.40;6.40;;;14.30;99.90;;;;;;5033952;28;20649;-53
2022/07/02 05:21:50;;;;;;;6.47;5.97;;;14.30;99.90;;;;;;5033172;28;20231;-54
2022/07/02 05:24:17;;;;;;;8.17;5.87;;;14.40;99.90;;;;;;5035692;28;20219;-54
2022/07/02 05:26:44;;;;;;;6.33;5.73;;;14.40;99.90;;;;;;5032496;28;20214;-50
2022/07/02 05:29:10;;;;;;;6.60;5.80;;;14.50;99.90;;;;;;5032499;28;20211;-49
2022/07/02 05:31:38;;;;;;;5.60;5.07;;;14.60;99.90;;;;;;5017286;28;20196;-51
2022/07/02 05:34:05;;;;;;;5.47;5.07;;;14.70;99.90;;;;;;5031856;28;20294;-53
2022/07/02 05:36:32;;;;;;;5.67;5.00;;;14.70;99.90;;;;;;5026543;28;20207;-49
2022/07/02 05:38:59;;;;;;;7.43;5.40;;;14.80;99.90;;;;;;5034726;28;20206;-50
2022/07/02 05:41:26;;;;;;;6.70;5.40;;;14.80;99.90;;;;;;5029285;28;20224;-53
2022/07/02 05:43:53;;;;;;;7.57;5.10;;;14.90;99.90;;;;;;5028499;28;20242;-49
2022/07/02 05:46:20;;;;;;;4.83;4.43;;;15.00;99.90;;;;;;5032483;28;20196;-53
2022/07/02 05:48:49;;;;;;;4.23;3.93;;;15.00;99.90;;;;;;5035526;28;20195;-54
2022/07/02 05:51:16;;;;;;;7.90;3.93;;;15.10;99.90;;;;;;5033410;28;20207;-52
2022/07/02 05:53:43;;;;;;;4.77;4.20;;;15.20;99.90;;;;;;5028700;28;20270;-51
2022/07/02 05:56:09;;;;;;;5.07;4.10;;;15.20;99.90;;;;;;5033231;28;20215;-50
2022/07/02 05:58:36;;;;;;;6.23;3.57;;;15.30;99.90;;;;;;5021151;28;20196;-44
2022/07/02 06:01:03;;;;;;;5.30;4.73;;;15.40;99.90;;;;;;5045547;28;20321;-41
2022/07/02 06:03:30;;;;;;;5.00;3.83;;;15.50;99.90;;;;;;5015697;28;20227;-45
2022/07/02 06:08:43;;;;;;;4.87;3.10;;;15.70;99.90;;;;;;5027646;28;20307;-41
2022/07/02 06:11:11;;;;;;;3.70;3.30;;;15.90;99.90;;;;;;5031311;28;20191;-40
2022/07/02 06:13:37;;;;;;;4.17;3.37;;;16.00;99.90;;;;;;5038330;28;20226;-40
2022/07/02 06:16:05;;;;;;;5.77;3.03;;;16.00;99.90;;;;;;5029240;28;20452;-41
2022/07/02 06:18:31;;;;;;;4.53;3.10;;;16.10;99.90;;;;;;5025989;28;20326;-42
2022/07/02 06:21:00;;;;;;;2.70;2.37;;;16.10;99.90;;;;;;5040115;28;20421;-42
2022/07/02 06:23:26;;;;;;;3.17;2.67;;;16.10;99.90;;;;;;5039750;28;20223;-41
2022/07/02 06:25:53;;;;;;;4.23;2.50;;;16.20;99.90;;;;;;5038545;28;20734;-41
2022/07/02 06:28:20;;;;;;;5.13;2.63;;;16.30;99.90;;;;;;5043959;28;20214;-42
2022/07/02 06:30:47;;;;;;;5.17;2.43;;;16.40;99.90;;;;;;5025199;28;20200;-40
2022/07/02 06:33:13;;;;;;;6.30;2.50;;;16.40;99.90;;;;;;5034708;28;20211;-41
2022/07/02 06:35:42;;;;;;;5.10;1.47;;;16.60;99.90;;;;;;5030346;28;20207;-40
2022/07/02 06:38:11;;;;;;;4.40;1.83;;;16.60;99.90;;;;;;5035564;28;20191;-41
2022/07/02 06:40:38;;;;;;;4.10;2.43;;;16.80;99.90;;;;;;5038937;28;20273;-41
2022/07/02 06:43:05;;;;;;;2.00;1.43;;;16.90;99.90;;;;;;5039356;28;20215;-42
2022/07/02 06:45:31;;;;;;;2.23;1.33;;;17.00;99.90;;;;;;5036028;28;20215;-43
2022/07/02 06:47:59;;;;;;;4.07;1.30;;;17.10;99.90;;;;;;5023495;28;20200;-49
2022/07/02 06:50:25;;;;;;;4.07;1.73;;;17.20;99.90;;;;;;5026856;28;20200;-49
2022/07/02 06:52:53;;;;;;;5.03;2.03;;;17.20;99.90;;;;;;5041482;28;20225;-49
2022/07/02 06:55:21;;;;;;;6.03;1.93;;;17.30;99.90;;;;;;5032967;28;20214;-49
2022/07/02 06:57:49;;;;;;;2.13;1.40;;;17.30;99.90;;;;;;5041971;28;20262;-48
2022/07/02 07:00:16;;;;;;;4.47;1.97;;;17.40;99.90;;;;;;5028481;28;20207;-43
2022/07/02 07:02:45;;;;;;;3.27;1.33;;;17.50;99.90;;;;;;5027493;28;20230;-41
2022/07/02 07:05:12;;;;;;;2.73;1.77;;;17.60;99.90;;;;;;5020215;28;20915;-41
2022/07/02 07:07:38;;;;;;;3.30;1.40;;;17.70;99.90;;;;;;5035585;28;20761;-42
2022/07/02 07:10:06;;;;;;;3.03;1.20;;;17.80;99.90;;;;;;5035914;28;20187;-41
2022/07/02 07:12:34;;;;;;;3.37;1.10;;;17.80;99.90;;;;;;5041976;28;20215;-42
2022/07/02 07:15:04;;;;;;;2.53;1.03;;;17.90;99.90;;;;;;5029896;28;23628;-42
2022/07/02 07:17:31;;;;;;;3.20;1.30;;;17.90;99.90;;;;;;5037456;28;20207;-42
2022/07/02 07:19:58;;;;;;;5.13;2.87;;;18.00;99.90;;;;;;5014529;28;20203;-42
2022/07/02 07:22:25;;;;;;;3.43;1.10;;;18.00;99.90;;;;;;5042666;28;20223;-41
2022/07/02 07:24:52;;;;;;;2.67;1.10;;;18.10;99.90;;;;;;5039576;28;20216;-41
2022/07/02 07:27:20;;;;;;;1.47;1.37;;;18.20;99.90;;;;;;5042914;28;20206;-42
2022/07/02 07:29:48;;;;;;;3.17;1.17;;;18.30;99.90;;;;;;5039138;28;20551;-41
2022/07/02 07:32:15;;;;;;;3.57;1.30;;;18.30;99.90;;;;;;5036853;28;20195;-43
2022/07/02 07:34:42;;;;;;;3.33;1.17;;;18.40;99.90;;;;;;5029468;28;20718;-42
2022/07/02 07:37:09;;;;;;;5.77;1.83;;;18.50;99.90;;;;;;5026900;28;20238;-42
2022/07/02 07:39:35;;;;;;;1.27;1.00;;;18.50;99.90;;;;;;5041839;28;20196;-42
2022/07/02 07:42:03;;;;;;;4.73;1.53;;;18.50;99.90;;;;;;5029709;28;20276;-41
2022/07/02 07:44:29;;;;;;;3.70;1.13;;;18.60;99.90;;;;;;5038916;28;20203;-42
2022/07/02 07:46:57;;;;;;;2.30;1.40;;;18.70;99.90;;;;;;5029730;28;20199;-41
2022/07/02 07:49:24;;;;;;;2.70;1.10;;;18.80;99.90;;;;;;5029015;28;20281;-40
2022/07/02 07:51:51;;;;;;;4.37;1.80;;;18.80;99.90;;;;;;5023685;28;20199;-43
2022/07/02 07:54:18;;;;;;;2.60;1.43;;;19.00;99.90;;;;;;5029014;28;20576;-41
2022/07/02 07:56:45;;;;;;;2.50;1.40;;;19.00;99.90;;;;;;5040763;28;20206;-41
2022/07/02 07:59:11;;;;;;;2.67;1.63;;;19.10;99.90;;;;;;5032744;28;20330;-44
2022/07/02 08:01:38;;;;;;;4.23;1.20;;;19.20;99.90;;;;;;5033489;28;20226;-43
2022/07/02 08:04:06;;;;;;;2.90;1.10;;;19.20;99.90;;;;;;5031040;28;20230;-40
2022/07/02 08:06:33;;;;;;;2.90;1.43;;;19.30;99.90;;;;;;5043811;28;20214;-40
2022/07/02 08:09:03;;;;;;;2.33;1.70;;;19.30;99.90;;;;;;5026124;28;20278;-41
2022/07/02 08:11:30;;;;;;;4.23;1.90;;;19.40;99.90;;;;;;5043541;28;20199;-41
2022/07/02 08:13:56;;;;;;;3.57;1.40;;;19.50;99.90;;;;;;5032421;28;20222;-44
2022/07/02 08:16:24;;;;;;;3.87;1.87;;;19.50;99.90;;;;;;5042648;28;20226;-41
2022/07/02 08:18:50;;;;;;;3.03;1.50;;;19.50;99.90;;;;;;5021715;28;20250;-41
2022/07/02 08:21:19;;;;;;;2.30;1.20;;;19.60;99.90;;;;;;5039961;28;20703;-41
2022/07/02 08:23:46;;;;;;;4.47;1.60;;;19.70;99.90;;;;;;5022230;28;20652;-41
2022/07/02 08:26:13;;;;;;;3.30;1.37;;;19.80;99.90;;;;;;5041403;28;20187;-41
2022/07/02 08:28:40;;;;;;;7.10;3.80;;;19.90;99.90;;;;;;5040934;28;20206;-42
2022/07/02 08:31:07;;;;;;;5.20;2.40;;;19.90;99.90;;;;;;5039319;28;20195;-42
2022/07/02 08:33:34;;;;;;;2.53;2.00;;;19.90;99.90;;;;;;5032444;28;20246;-41
2022/07/02 08:36:01;;;;;;;3.23;1.47;;;19.90;99.90;;;;;;5032276;28;20203;-44
2022/07/02 08:38:29;;;;;;;1.27;1.17;;;19.90;99.90;;;;;;5032122;28;20554;-43
2022/07/02 08:40:56;;;;;;;4.53;1.33;;;19.90;99.90;;;;;;5017199;28;20216;-41
2022/07/02 08:43:25;;;;;;;3.97;1.00;;;20.00;99.90;;;;;;5036793;28;20581;-41
2022/07/02 08:45:53;;;;;;;3.50;1.37;;;20.10;99.90;;;;;;5039200;28;20199;-41
2022/07/02 08:48:21;;;;;;;7.90;1.70;;;20.10;99.90;;;;;;5032829;28;20228;-42
2022/07/02 08:50:50;;;;;;;4.13;1.73;;;20.10;99.90;;;;;;5035841;28;20203;-41
2022/07/02 08:53:18;;;;;;;2.53;1.03;;;20.10;99.90;;;;;;5031452;28;20227;-41
2022/07/02 08:55:50;;;;;;;2.03;1.03;;;20.20;99.90;;;;;;5026643;28;20282;-44
2022/07/02 08:58:18;;;;;;;3.60;1.13;;;20.40;99.90;;;;;;5040646;28;20204;-41
2022/07/02 09:00:47;;;;;;;1.83;0.83;;;20.50;99.90;;;;;;5040785;28;20195;-41
2022/07/02 09:03:14;;;;;;;4.63;1.03;;;20.60;99.90;;;;;;5040169;28;20219;-40
2022/07/02 09:05:42;;;;;;;4.07;1.40;;;20.70;99.90;;;;;;5030957;28;20210;-41
2022/07/02 09:08:10;;;;;;;2.17;0.93;;;20.70;99.50;;;;;;5034835;28;20230;-43
2022/07/02 09:10:39;;;;;;;2.57;1.33;;;20.70;99.00;;;;;;5029805;28;20206;-41
2022/07/02 09:13:08;;;;;;;1.83;0.90;;;20.60;99.10;;;;;;5042443;28;20211;-41
2022/07/02 09:15:36;;;;;;;2.00;0.60;;;20.70;97.80;;;;;;5037513;28;20238;-43
2022/07/02 09:18:03;;;;;;;3.33;0.83;;;20.70;96.90;;;;;;5041621;28;20241;-42
2022/07/02 09:20:30;;;;;;;2.70;0.70;;;20.90;97.50;;;;;;5036341;28;20215;-44
2022/07/02 09:22:56;;;;;;;1.40;0.63;;;21.00;98.10;;;;;;5033180;28;20231;-42
2022/07/02 09:25:26;;;;;;;2.80;1.23;;;21.10;97.40;;;;;;5045436;28;20199;-42
2022/07/02 09:27:58;;;;;;;1.60;1.00;;;21.20;96.70;;;;;;5023369;28;20676;-41
2022/07/02 09:30:29;;;;;;;2.93;0.87;;;21.30;96.50;;;;;;5044254;28;20203;-41
2022/07/02 09:35:37;;;;;;;1.90;0.77;;;21.40;95.80;;;;;;5037905;28;20203;-41
2022/07/02 09:38:09;;;;;;;1.97;1.00;;;21.30;95.60;;;;;;5036693;28;20207;-42
2022/07/02 09:40:37;;;;;;;2.90;1.30;;;21.30;95.10;;;;;;5043024;28;20207;-41
2022/07/02 09:43:04;;;;;;;6.03;4.13;;;21.30;95.30;;;;;;5023902;28;20239;-41
2022/07/02 09:45:32;;;;;;;9.13;1.03;;;21.30;95.00;;;;;;5043190;28;20210;-41
2022/07/02 09:48:03;;;;;;;2.67;0.77;;;21.50;94.60;;;;;;5036638;28;20480;-41
2022/07/02 09:50:30;;;;;;;2.23;0.80;;;21.50;94.40;;;;;;5038831;28;20211;-41
2022/07/02 09:52:58;;;;;;;1.20;0.90;;;21.50;93.90;;;;;;5032721;28;20707;-40
2022/07/02 09:55:27;;;;;;;3.37;0.80;;;21.50;93.80;;;;;;5036390;28;20236;-41
2022/07/02 09:57:56;;;;;;;2.67;1.10;;;21.50;93.50;;;;;;5023141;28;20214;-41
2022/07/02 10:00:25;;;;;;;1.87;0.90;;;21.40;93.20;;;;;;5031332;28;20650;-40
2022/07/02 10:02:54;;;;;;;5.07;1.30;;;21.50;92.70;;;;;;5042779;28;20227;-41
2022/07/02 10:05:27;;;;;;;1.63;1.10;;;21.60;93.30;;;;;;5043778;28;20660;-41
2022/07/02 10:07:54;;;;;;;4.00;0.80;;;21.60;92.30;;;;;;5017033;28;20294;-41
2022/07/02 10:10:28;;;;;;;1.53;0.80;;;21.60;93.00;;;;;;5042405;28;20206;-41
2022/07/02 10:12:57;;;;;;;2.17;1.00;;;21.70;93.70;;;;;;5023894;28;20296;-41
2022/07/02 10:15:29;;;;;;;5.10;2.27;;;21.70;92.90;;;;;;5040480;28;20208;-40
2022/07/02 10:18:00;;;;;;;4.25;0.70;;;21.80;93.10;;;;;;5038120;28;20820;-42
2022/07/02 10:20:28;;;;;;;3.80;1.50;;;21.90;93.70;;;;;;5037968;28;20196;-41
2022/07/02 10:22:57;;;;;;;1.90;1.50;;;22.10;92.80;;;;;;5027701;28;20231;-40
2022/07/02 10:25:24;;;;;;;1.40;1.00;;;22.20;92.50;;;;;;5038224;28;20222;-43
2022/07/02 10:27:54;;;;;;;0.70;0.50;;;22.50;92.00;;;;;;5041855;28;20200;-43
2022/07/02 10:30:22;;;;;;;1.20;0.50;;;22.50;90.80;;;;;;5028920;28;20230;-41
2022/07/02 10:33:11;;;;;;;1.50;0.60;;;22.40;90.50;;;;;;5040079;28;20731;-42
2022/07/02 10:35:39;;;;;;;0.93;0.65;;;22.30;89.10;;;;;;5041907;28;20561;-45
2022/07/02 10:38:07;;;;;;;1.23;0.73;;;22.30;89.40;;;;;;5034020;28;20206;-43
2022/07/02 10:40:34;;;;;;;2.58;1.08;;;22.30;89.00;;;;;;5032114;28;20203;-43
2022/07/02 10:43:01;;;;;;;0.70;0.65;;;22.40;89.10;;;;;;5041285;28;20223;-41
2022/07/02 10:45:28;;;;;;;2.28;0.50;;;22.40;88.30;;;;;;5019457;28;20216;-42
2022/07/02 10:47:59;;;;;;;1.45;0.60;;;22.40;87.20;;;;;;5040367;28;20571;-42
2022/07/02 10:50:39;;;;;;;1.90;0.90;;;22.60;87.20;;;;;;5044486;28;20238;-41
2022/07/02 10:53:11;;;;;;;2.15;0.70;;;22.60;85.90;;;;;;5028747;28;20217;-41
2022/07/02 10:55:38;;;;;;;2.15;0.75;;;22.50;84.30;;;;;;5034229;28;20302;-41
2022/07/02 10:58:07;;;;;;;1.25;0.70;;;22.40;85.00;;;;;;5037752;28;20191;-43
2022/07/02 11:00:35;;;;;;;3.13;1.23;;;22.40;84.50;;;;;;5029443;28;20296;-43
2022/07/02 11:03:13;;;;;;;1.08;0.82;;;22.50;83.30;;;;;;5033065;28;20796;-48
2022/07/02 11:05:57;;;;;;;2.08;0.75;;;22.50;82.60;;;;;;5042847;28;20203;-41
2022/07/02 11:08:48;;;;;;;1.38;0.65;;;22.70;80.50;;;;;;5033145;28;20217;-42
2022/07/02 11:11:19;;;;;;;3.08;0.68;;;22.80;80.40;;;;;;5026359;28;20207;-41
2022/07/02 11:13:48;;;;;;;1.02;0.47;;;23.00;80.90;;;;;;5034317;28;20290;-40
2022/07/02 11:16:23;;;;;;;2.00;0.50;;;23.10;80.60;;;;;;5034977;28;20291;-41
2022/07/02 11:18:50;;;;;;;1.83;0.85;;;23.10;79.80;;;;;;5041897;28;20210;-41
2022/07/02 11:21:20;;;;;;;1.00;0.80;;;23.10;83.00;;;;;;5042934;28;20200;-43
2022/07/02 11:23:47;;;;;;;4.25;0.80;;;23.30;80.80;;;;;;5028504;28;20227;-41
2022/07/02 11:26:19;;;;;;;0.60;0.60;;;23.30;80.20;;;;;;5033481;28;20200;-44
2022/07/02 11:28:46;;;;;;;1.85;0.55;;;23.30;79.20;;;;;;5032090;28;20196;-41
2022/07/02 11:31:13;;;;;;;1.55;0.63;;;23.10;79.10;;;;;;5026826;28;20210;-43
2022/07/02 11:33:47;;;;;;;1.20;0.70;;;23.00;78.50;;;;;;5042638;28;20226;-41
2022/07/02 11:36:14;;;;;;;1.70;0.65;;;23.00;77.50;;;;;;5041140;28;20918;-42
2022/07/02 11:38:45;;;;;;;2.75;0.50;;;22.90;77.20;;;;;;5032007;28;20207;-41
2022/07/02 11:41:20;;;;;;;1.65;0.50;;;22.70;77.00;;;;;;5041959;28;20896;-40
2022/07/02 11:43:47;;;;;;;1.33;0.70;;;22.60;78.40;;;;;;5027578;28;20250;-41
2022/07/02 11:46:17;;;;;;;2.53;0.63;;;22.60;80.20;;;;;;5023153;28;20202;-41
2022/07/02 11:48:46;;;;;;;2.17;0.60;;;22.70;81.70;;;;;;5034697;28;20286;-42
2022/07/02 11:51:13;;;;;;;1.70;0.70;;;22.90;80.60;;;;;;5038174;28;20626;-41
2022/07/02 11:53:41;;;;;;;1.83;0.80;;;23.10;80.90;;;;;;5036778;28;20215;-41
2022/07/02 11:56:10;;;;;;;2.03;0.80;;;23.20;78.90;;;;;;5035132;28;20199;-43
2022/07/02 11:58:39;;;;;;;1.17;0.90;;;23.20;78.00;;;;;;5030927;28;20229;-44
2022/07/02 12:01:18;;;;;;;1.33;0.70;;;23.20;76.00;;;;;;5008531;28;20227;-45
2022/07/02 12:03:45;;;;;;;2.67;0.60;;;23.20;76.20;;;;;;5040048;28;20234;-42
2022/07/02 12:06:13;;;;;;;1.90;0.80;;;23.30;76.10;;;;;;5041191;28;20973;-43
2022/07/02 12:08:42;;;;;;;4.18;1.55;;;23.50;76.80;;;;;;5041543;28;20206;-41
2022/07/02 12:11:14;;;;;;;2.15;0.50;;;23.80;76.00;;;;;;5032454;28;20199;-42
2022/07/02 12:13:41;;;;;;;0.82;0.43;;;23.90;74.10;;;;;;5033728;28;20223;-41
2022/07/02 12:16:10;;;;;;;1.70;0.50;;;24.00;75.60;;;;;;5021311;28;20204;-40
2022/07/02 12:18:37;;;;;;;1.80;0.70;;;24.30;74.90;;;;;;5039824;28;20678;-44
2022/07/02 12:21:12;;;;;;;1.05;0.57;;;24.20;74.40;;;;;;5037613;28;20279;-42
2022/07/02 12:23:45;;;;;;;0.98;0.57;;;24.30;71.40;;;;;;5040672;28;20218;-42
2022/07/02 12:26:32;;;;;;;0.80;0.80;;;24.10;75.40;;;;;;5036255;28;20357;-41
2022/07/02 12:31:49;;;;;;;0.70;0.40;;;23.80;72.80;;;;;;5027788;28;20202;-41
2022/07/02 12:34:17;;;;;;;1.48;1.20;;;23.60;72.10;;;;;;5037981;28;20842;-43
2022/07/02 12:36:48;;;;;;;1.70;0.52;;;23.60;72.50;;;;;;5032016;28;20265;-41
2022/07/02 12:39:17;;;;;;;0.65;0.50;;;23.70;71.50;;;;;;5031646;28;20962;-42
2022/07/02 12:41:43;;;;;;;1.75;0.50;;;23.70;71.80;;;;;;5035259;28;20203;-41
2022/07/02 12:44:21;;;;;;;1.27;0.60;;;23.80;73.90;;;;;;5025839;28;20219;-40
2022/07/02 12:46:50;;;;;;;4.07;2.40;;;24.10;71.70;;;;;;5040581;28;20556;-41
2022/07/02 12:49:19;;;;;;;1.35;0.75;;;24.30;70.40;;;;;;5026623;28;20206;-40
2022/07/02 12:51:54;;;;;;;0.70;0.63;;;24.30;69.50;;;;;;5041154;28;20203;-41
2022/07/02 12:54:36;;;;;;;1.00;0.60;;;24.00;69.00;;;;;;5032248;28;20218;-43
2022/07/02 12:57:21;;;;;;;3.08;0.65;;;24.10;71.70;;;;;;5028094;28;20871;-44
2022/07/02 12:59:49;;;;;;;1.30;0.57;;;24.50;71.10;;;;;;5025541;28;20195;-41
2022/07/02 13:02:19;;;;;;;1.75;0.80;;;25.00;70.50;;;;;;5031076;28;20211;-40
2022/07/02 13:04:46;;;;;;;3.28;0.57;;;25.20;66.20;;;;;;5025837;28;20211;-41
2022/07/02 13:07:15;;;;;;;0.85;0.63;;;25.20;66.70;;;;;;5039904;28;20226;-41
2022/07/02 13:09:43;;;;;;;1.98;0.85;;;25.20;68.80;;;;;;5027445;28;20222;-41
2022/07/02 13:12:13;;;;;;;0.80;0.65;;;25.50;72.00;;;;;;5033548;28;20203;-41
2022/07/02 13:14:40;;;;;;;3.28;0.65;;;25.90;69.40;;;;;;5040962;28;20280;-43
2022/07/02 13:17:07;;;;;;;0.95;0.70;;;26.00;68.50;;;;;;5030626;28;20206;-41
2022/07/02 13:19:36;;;;;;;2.70;0.95;;;25.90;66.70;;;;;;5041473;28;20199;-43
2022/07/02 13:22:04;;;;;;;1.45;0.60;;;25.50;66.00;;;;;;5025918;28;20273;-44
2022/07/02 13:24:31;;;;;;;1.38;0.52;;;25.20;65.90;;;;;;5038159;28;20219;-41
2022/07/02 13:26:59;;;;;;;2.35;0.50;;;25.10;65.70;;;;;;5027841;28;20206;-41
2022/07/02 13:29:27;;;;;;;1.38;0.75;;;25.20;65.60;;;;;;5041154;28;20206;-42
2022/07/02 13:31:53;;;;;;;0.75;0.60;;;25.20;64.60;;;;;;5032042;28;20265;-42
2022/07/02 13:34:20;;;;;;;1.00;0.75;;;25.20;65.60;;;;;;5041362;28;20215;-42
2022/07/02 13:36:48;;;;;;;0.65;0.60;;;25.30;66.60;;;;;;5025387;28;20199;-41
2022/07/02 13:39:15;;;;;;;1.33;0.65;;;25.90;65.20;;;;;;5036440;28;20192;-41
2022/07/02 13:41:42;;;;;;;1.13;0.70;;;26.20;64.00;;;;;;5030569;28;20210;-41
2022/07/02 13:44:10;;;;;;;0.77;0.57;;;26.60;64.20;;;;;;5038440;28;20280;-41
2022/07/02 13:46:37;;;;;;;0.65;0.50;;;27.00;64.60;;;;;;5041711;28;20687;-41
2022/07/02 13:49:04;;;;;;;1.55;0.73;;;27.30;60.60;;;;;;5036201;28;20260;-41
2022/07/02 13:51:32;;;;;;;3.33;0.60;;;27.50;61.50;;;;;;5013143;28;20207;-41
2022/07/02 13:53:59;;;;;;;1.92;0.50;;;28.00;62.60;;;;;;5040045;28;20699;-41
2022/07/02 13:56:25;;;;;;;2.13;0.60;;;28.00;60.10;;;;;;5032675;28;21775;-41
2022/07/02 13:58:52;;;;;;;2.25;0.45;;;27.40;59.50;;;;;;5045227;28;20249;-41
2022/07/02 14:01:21;;;;;;;1.95;0.52;;;26.90;59.30;;;;;;5034877;28;20253;-41
2022/07/02 14:03:47;;;;;;;0.95;0.95;;;26.50;58.70;;;;;;5043973;28;20238;-41
2022/07/02 14:06:14;;;;;;;2.55;0.80;;;26.20;59.60;;;;;;5042911;28;20223;-41
2022/07/02 14:08:41;;;;;;;1.45;0.68;;;25.90;59.50;;;;;;5028659;28;20207;-42
2022/07/02 14:11:10;;;;;;;1.02;0.65;;;26.00;60.20;;;;;;5041687;28;20202;-42
2022/07/02 14:13:39;;;;;;;2.15;0.80;;;25.90;59.60;;;;;;5041292;28;20956;-41
2022/07/02 14:16:06;;;;;;;3.97;0.60;;;25.90;61.10;;;;;;5045010;28;20571;-40
2022/07/02 14:18:35;;;;;;;1.52;0.65;;;25.80;60.60;;;;;;5037352;28;20199;-43
2022/07/02 14:21:03;;;;;;;1.48;1.30;;;25.90;60.90;;;;;;5046045;28;20203;-41
2022/07/02 14:23:31;;;;;;;1.73;0.60;;;26.10;61.10;;;;;;5024973;28;20219;-42
2022/07/02 14:25:58;;;;;;;3.08;0.93;;;25.90;60.30;;;;;;5037451;28;20203;-41
2022/07/02 14:28:26;;;;;;;1.15;0.88;;;25.60;60.00;;;;;;5034278;28;20210;-41